Time;durP1;ratioP1;P1;durP2;ratioP2;P2;SDS_P1;SDS_P2;PMS_P1;PMS_P2;Temp;Humidity;BMP_temperature;BMP_pressure;BME280_temperature;BME280_humidity;BME280_pressure;Samples;Min_cycle;Max_cycle;Signal;HPM_P1;HPM_P2
2023/05/31 00:00:46;;;;;;;9.20;4.10;;;;;;;;;;5027888;28;20036;-58
2023/05/31 00:03:13;;;;;;;7.03;3.47;;;;;;;;;;5028474;28;20033;-58
2023/05/31 00:05:39;;;;;;;7.32;3.75;;;;;;;;;;5028644;28;20037;-59
2023/05/31 00:08:05;;;;;;;7.90;4.07;;;;;;;;;;5026803;28;20033;-58
2023/05/31 00:10:31;;;;;;;8.02;3.63;;;;;;;;;;5027778;28;20064;-58
2023/05/31 00:12:57;;;;;;;8.13;3.88;;;;;;;;;;5027509;28;20037;-58
2023/05/31 00:15:23;;;;;;;8.65;4.03;;;;;;;;;;5027587;28;20029;-59
2023/05/31 00:17:49;;;;;;;6.78;3.45;;;;;;;;;;5028152;28;20148;-58
2023/05/31 00:20:15;;;;;;;8.90;3.65;;;;;;;;;;5028767;28;21109;-59
2023/05/31 00:22:41;;;;;;;10.02;3.45;;;;;;;;;;5025656;28;20061;-58
2023/05/31 00:25:08;;;;;;;10.85;4.55;;;;;;;;;;5026812;28;20056;-58
2023/05/31 00:27:34;;;;;;;7.80;3.50;;;;;;;;;;5026311;28;21135;-59
2023/05/31 00:30:00;;;;;;;7.68;3.67;;;;;;;;;;5027640;28;20033;-58
2023/05/31 00:32:26;;;;;;;7.97;3.33;;;;;;;;;;5027781;28;20032;-59
2023/05/31 00:34:52;;;;;;;8.77;3.70;;;;;;;;;;5027670;28;20622;-58
2023/05/31 00:37:18;;;;;;;9.52;3.20;;;;;;;;;;5026831;28;20040;-58
2023/05/31 00:39:44;;;;;;;8.73;3.65;;;;;;;;;;5016688;28;20091;-58
2023/05/31 00:42:10;;;;;;;8.90;3.70;;;;;;;;;;5026284;28;20818;-58
2023/05/31 00:44:37;;;;;;;9.35;3.67;;;;;;;;;;5024595;28;20036;-58
2023/05/31 00:47:03;;;;;;;7.93;3.80;;;;;;;;;;5023383;28;20039;-58
2023/05/31 00:49:30;;;;;;;8.90;3.95;;;;;;;;;;5026748;28;20040;-59
2023/05/31 00:51:56;;;;;;;8.20;3.70;;;;;;;;;;5025954;28;20024;-58
2023/05/31 00:54:23;;;;;;;8.98;3.90;;;;;;;;;;5027773;28;20029;-58
2023/05/31 00:56:49;;;;;;;8.45;3.78;;;;;;;;;;5026359;28;20025;-58
2023/05/31 00:59:16;;;;;;;7.43;3.70;;;;;;;;;;5023137;28;20047;-59
2023/05/31 01:01:42;;;;;;;7.45;3.92;;;;;;;;;;5026228;28;20959;-58
2023/05/31 01:04:09;;;;;;;6.78;3.78;;;;;;;;;;5023777;28;20044;-58
2023/05/31 01:06:35;;;;;;;8.98;4.00;;;;;;;;;;5026105;28;21456;-59
2023/05/31 01:09:05;;;;;;;7.82;3.55;;;;;;;;;;5025333;28;20052;-58
2023/05/31 01:11:53;;;;;;;7.45;3.45;;;;;;;;;;5025376;28;20029;-58
2023/05/31 01:14:25;;;;;;;7.38;3.78;;;;;;;;;;5025763;28;20033;-58
2023/05/31 01:16:54;;;;;;;7.55;3.35;;;;;;;;;;5025216;28;20400;-58
2023/05/31 01:19:39;;;;;;;8.48;3.80;;;;;;;;;;5027246;28;20056;-58
2023/05/31 01:22:14;;;;;;;6.53;3.50;;;;;;;;;;5026983;28;20049;-58
2023/05/31 01:24:55;;;;;;;7.45;3.33;;;;;;;;;;5026468;28;20271;-58
2023/05/31 01:27:22;;;;;;;8.13;3.50;;;;;;;;;;5024640;28;20622;-57
2023/05/31 01:29:49;;;;;;;7.47;3.53;;;;;;;;;;5025031;28;20982;-57
2023/05/31 01:32:16;;;;;;;5.63;3.00;;;;;;;;;;5025302;28;20602;-58
2023/05/31 01:34:45;;;;;;;8.90;4.18;;;;;;;;;;5024881;28;20489;-58
2023/05/31 01:37:11;;;;;;;8.23;3.80;;;;;;;;;;5024530;28;20037;-58
2023/05/31 01:39:38;;;;;;;9.77;3.63;;;;;;;;;;5025615;28;20033;-58
2023/05/31 01:42:05;;;;;;;6.50;3.53;;;;;;;;;;5026980;28;20393;-58
2023/05/31 01:44:32;;;;;;;8.85;3.90;;;;;;;;;;5026215;28;20109;-58
2023/05/31 01:46:59;;;;;;;7.47;3.38;;;;;;;;;;5025968;28;20033;-58
2023/05/31 01:49:25;;;;;;;7.68;3.80;;;;;;;;;;5025860;28;20037;-58
2023/05/31 01:51:51;;;;;;;6.50;3.30;;;;;;;;;;5026300;28;20116;-58
2023/05/31 01:54:17;;;;;;;6.70;3.53;;;;;;;;;;5025771;28;20507;-58
2023/05/31 01:56:44;;;;;;;9.18;3.90;;;;;;;;;;5026160;28;20032;-58
2023/05/31 01:59:12;;;;;;;7.30;3.38;;;;;;;;;;5025950;28;20033;-58
2023/05/31 02:01:38;;;;;;;7.38;3.53;;;;;;;;;;5026517;28;20029;-58
2023/05/31 02:04:05;;;;;;;9.35;3.10;;;;;;;;;;5026294;28;20037;-58
2023/05/31 02:06:31;;;;;;;11.85;3.65;;;;;;;;;;5025102;28;20035;-58
2023/05/31 02:08:57;;;;;;;6.97;3.30;;;;;;;;;;5026599;28;20040;-58
2023/05/31 02:11:25;;;;;;;6.50;3.85;;;;;;;;;;5025970;28;21804;-58
2023/05/31 02:13:51;;;;;;;6.72;3.45;;;;;;;;;;5026470;28;20118;-58
2023/05/31 02:16:17;;;;;;;8.15;3.63;;;;;;;;;;5025361;28;20151;-58
2023/05/31 02:18:44;;;;;;;8.25;3.58;;;;;;;;;;5026168;28;20247;-58
2023/05/31 02:21:10;;;;;;;6.80;3.50;;;;;;;;;;5025750;28;21329;-58
2023/05/31 02:23:36;;;;;;;7.28;3.58;;;;;;;;;;5025036;28;20923;-58
2023/05/31 02:26:03;;;;;;;5.43;3.10;;;;;;;;;;5026584;28;21021;-58
2023/05/31 02:28:29;;;;;;;9.85;3.30;;;;;;;;;;5025895;28;20021;-58
2023/05/31 02:30:56;;;;;;;5.93;3.30;;;;;;;;;;5026774;28;20171;-58
2023/05/31 02:33:23;;;;;;;6.65;2.90;;;;;;;;;;5029769;28;20033;-58
2023/05/31 02:35:49;;;;;;;7.22;3.00;;;;;;;;;;5029732;28;20043;-58
2023/05/31 02:38:15;;;;;;;8.77;3.92;;;;;;;;;;5030025;28;20168;-57
2023/05/31 02:40:41;;;;;;;9.65;4.43;;;;;;;;;;5029917;28;21071;-58
2023/05/31 02:43:07;;;;;;;12.02;5.43;;;;;;;;;;5030173;28;20509;-58
2023/05/31 02:45:33;;;;;;;8.75;3.60;;;;;;;;;;5029229;28;20479;-58
2023/05/31 02:48:01;;;;;;;7.70;3.97;;;;;;;;;;5029117;28;20087;-58
2023/05/31 02:50:28;;;;;;;8.18;3.80;;;;;;;;;;5029692;28;20029;-58
2023/05/31 02:52:54;;;;;;;7.32;3.50;;;;;;;;;;5029237;28;20025;-58
2023/05/31 02:55:20;;;;;;;7.70;3.55;;;;;;;;;;5029465;28;20044;-58
2023/05/31 02:57:46;;;;;;;6.93;3.53;;;;;;;;;;5029125;28;20036;-58
2023/05/31 03:00:13;;;;;;;9.30;3.40;;;;;;;;;;5029737;28;20071;-58
2023/05/31 03:02:39;;;;;;;6.43;3.50;;;;;;;;;;5030053;28;20159;-58
2023/05/31 03:05:06;;;;;;;5.65;3.10;;;;;;;;;;5029702;28;20033;-58
2023/05/31 03:07:33;;;;;;;6.00;2.95;;;;;;;;;;5029138;28;20033;-58
2023/05/31 03:09:59;;;;;;;7.88;2.90;;;;;;;;;;5030004;28;20032;-58
2023/05/31 03:12:25;;;;;;;8.68;3.38;;;;;;;;;;5028821;28;20441;-58
2023/05/31 03:14:51;;;;;;;7.30;3.00;;;;;;;;;;5029322;28;20051;-58
2023/05/31 03:17:17;;;;;;;5.22;2.72;;;;;;;;;;5029794;28;20033;-57
2023/05/31 03:19:43;;;;;;;5.45;3.17;;;;;;;;;;5029591;28;20025;-58
2023/05/31 03:22:09;;;;;;;6.55;3.30;;;;;;;;;;5028545;28;20128;-58
2023/05/31 03:24:35;;;;;;;5.72;3.08;;;;;;;;;;5029857;28;20112;-57
2023/05/31 03:27:01;;;;;;;5.63;3.08;;;;;;;;;;5028635;28;20140;-58
2023/05/31 03:29:27;;;;;;;8.85;4.03;;;;;;;;;;5028422;28;20033;-58
2023/05/31 03:31:53;;;;;;;6.72;3.03;;;;;;;;;;5027910;28;20041;-58
2023/05/31 03:34:21;;;;;;;8.20;3.80;;;;;;;;;;5027637;28;20384;-58
2023/05/31 03:36:47;;;;;;;8.60;3.47;;;;;;;;;;5027018;28;20026;-58
2023/05/31 03:39:13;;;;;;;8.82;3.50;;;;;;;;;;5028177;28;20118;-58
2023/05/31 03:41:39;;;;;;;8.38;3.90;;;;;;;;;;5027047;28;20037;-58
2023/05/31 03:44:05;;;;;;;6.65;3.50;;;;;;;;;;5027238;28;20028;-58
2023/05/31 03:46:31;;;;;;;6.97;2.95;;;;;;;;;;5029036;28;20069;-58
2023/05/31 03:48:57;;;;;;;7.60;3.60;;;;;;;;;;5029172;28;20561;-58
2023/05/31 03:51:23;;;;;;;8.15;3.85;;;;;;;;;;5027457;28;20029;-58
2023/05/31 03:53:50;;;;;;;9.10;3.70;;;;;;;;;;5028758;28;20506;-58
2023/05/31 03:56:16;;;;;;;7.78;3.80;;;;;;;;;;5028752;28;20025;-58
2023/05/31 03:58:42;;;;;;;9.60;4.05;;;;;;;;;;5028888;28;20037;-57
2023/05/31 04:01:08;;;;;;;10.65;4.55;;;;;;;;;;5029372;28;20240;-58
2023/05/31 04:03:36;;;;;;;7.72;3.88;;;;;;;;;;5028346;28;20028;-58
2023/05/31 04:06:02;;;;;;;8.40;4.15;;;;;;;;;;5027216;28;20037;-58
2023/05/31 04:08:28;;;;;;;9.23;4.72;;;;;;;;;;5028244;28;20029;-58
2023/05/31 04:10:54;;;;;;;10.77;4.22;;;;;;;;;;5027962;28;20032;-58
2023/05/31 04:13:20;;;;;;;9.57;4.78;;;;;;;;;;5028291;28;20111;-57
2023/05/31 04:15:46;;;;;;;17.10;4.68;;;;;;;;;;5028065;28;20037;-58
2023/05/31 04:18:13;;;;;;;10.65;4.13;;;;;;;;;;5028633;28;20040;-58
2023/05/31 04:20:39;;;;;;;8.70;3.70;;;;;;;;;;5026291;28;20060;-58
2023/05/31 04:23:05;;;;;;;8.77;4.05;;;;;;;;;;5026728;28;20139;-58
2023/05/31 04:25:31;;;;;;;9.57;4.45;;;;;;;;;;5027730;28;21646;-57
2023/05/31 04:27:57;;;;;;;10.25;5.18;;;;;;;;;;5027334;28;20779;-58
2023/05/31 04:30:24;;;;;;;7.97;4.47;;;;;;;;;;5027177;28;20029;-58
2023/05/31 04:32:52;;;;;;;8.52;3.95;;;;;;;;;;5025622;28;20023;-58
2023/05/31 04:35:18;;;;;;;11.32;4.03;;;;;;;;;;5028170;28;20033;-58
2023/05/31 04:37:44;;;;;;;8.75;4.38;;;;;;;;;;5027696;28;20040;-57
2023/05/31 04:40:11;;;;;;;11.63;4.80;;;;;;;;;;5026525;28;20115;-58
2023/05/31 04:42:38;;;;;;;9.55;4.13;;;;;;;;;;5027839;28;20040;-58
2023/05/31 04:45:04;;;;;;;9.65;4.22;;;;;;;;;;5028397;28;20037;-58
2023/05/31 04:47:33;;;;;;;9.77;4.40;;;;;;;;;;5027717;28;20049;-58
2023/05/31 04:50:00;;;;;;;7.35;4.00;;;;;;;;;;5027712;28;20388;-58
2023/05/31 04:52:30;;;;;;;8.80;4.07;;;;;;;;;;5026216;28;20025;-58
2023/05/31 04:54:57;;;;;;;10.10;4.40;;;;;;;;;;5026078;28;20633;-58
2023/05/31 04:57:24;;;;;;;9.65;4.65;;;;;;;;;;5025490;28;20760;-58
2023/05/31 04:59:50;;;;;;;14.93;5.40;;;;;;;;;;5026775;28;20086;-58
2023/05/31 05:02:18;;;;;;;10.15;4.65;;;;;;;;;;5026947;28;20051;-58
2023/05/31 05:04:44;;;;;;;10.95;4.30;;;;;;;;;;5027753;28;20082;-58
2023/05/31 05:07:10;;;;;;;9.13;4.30;;;;;;;;;;5027472;28;20082;-58
2023/05/31 05:09:36;;;;;;;12.18;4.63;;;;;;;;;;5027822;28;20052;-58
2023/05/31 05:12:02;;;;;;;10.13;4.65;;;;;;;;;;5027505;28;20043;-58
2023/05/31 05:14:29;;;;;;;16.00;5.03;;;;;;;;;;5027790;28;20029;-58
2023/05/31 05:16:55;;;;;;;11.32;5.10;;;;;;;;;;5027549;28;20029;-58
2023/05/31 05:19:21;;;;;;;11.68;4.78;;;;;;;;;;5017900;28;20132;-58
2023/05/31 05:21:47;;;;;;;10.13;4.13;;;;;;;;;;5027393;28;21768;-58
2023/05/31 05:24:15;;;;;;;13.90;5.07;;;;;;;;;;5027131;28;20409;-58
2023/05/31 05:26:41;;;;;;;9.38;4.30;;;;;;;;;;5027614;28;20033;-58
2023/05/31 05:29:07;;;;;;;13.32;5.55;;;;;;;;;;5027263;28;20076;-58
2023/05/31 05:31:33;;;;;;;12.13;5.05;;;;;;;;;;5026760;28;20025;-58
2023/05/31 05:34:01;;;;;;;19.13;6.57;;;;;;;;;;5022720;28;20032;-58
2023/05/31 05:36:28;;;;;;;12.38;5.53;;;;;;;;;;5022969;28;20032;-58
2023/05/31 05:38:55;;;;;;;14.95;6.18;;;;;;;;;;5024762;28;20032;-58
2023/05/31 05:41:21;;;;;;;18.17;6.18;;;;;;;;;;5025459;28;20037;-58
2023/05/31 05:43:47;;;;;;;15.80;6.15;;;;;;;;;;5025620;28;20044;-65
2023/05/31 05:46:13;;;;;;;13.38;5.30;;;;;;;;;;5025879;28;20909;-65
2023/05/31 05:48:39;;;;;;;18.65;6.80;;;;;;;;;;5026994;28;20029;-64
2023/05/31 05:51:06;;;;;;;19.00;5.70;;;;;;;;;;5026705;28;20052;-65
2023/05/31 05:53:32;;;;;;;10.95;5.50;;;;;;;;;;5025950;28;20713;-65
2023/05/31 05:55:58;;;;;;;15.70;5.88;;;;;;;;;;5026883;28;20029;-65
2023/05/31 05:58:24;;;;;;;13.90;6.25;;;;;;;;;;5027123;28;21737;-65
2023/05/31 06:00:50;;;;;;;15.77;6.05;;;;;;;;;;5026832;28;20037;-65
2023/05/31 06:03:16;;;;;;;14.82;6.85;;;;;;;;;;5027275;28;20037;-65
2023/05/31 06:05:42;;;;;;;17.00;5.05;;;;;;;;;;5025772;28;20488;-66
2023/05/31 06:08:10;;;;;;;13.95;6.15;;;;;;;;;;5030559;28;20040;-65
2023/05/31 06:10:36;;;;;;;13.35;5.03;;;;;;;;;;5031606;28;20516;-65
2023/05/31 06:13:02;;;;;;;10.68;4.90;;;;;;;;;;5030941;28;20121;-65
2023/05/31 06:15:28;;;;;;;15.02;5.40;;;;;;;;;;5021648;28;20071;-65
2023/05/31 06:17:55;;;;;;;14.93;5.05;;;;;;;;;;5029667;28;20119;-65
2023/05/31 06:20:22;;;;;;;11.82;5.05;;;;;;;;;;5030910;28;20587;-65
2023/05/31 06:22:49;;;;;;;11.70;5.15;;;;;;;;;;5030238;28;20429;-65
2023/05/31 06:25:17;;;;;;;9.93;5.07;;;;;;;;;;5029824;28;20112;-65
2023/05/31 06:27:45;;;;;;;12.65;4.20;;;;;;;;;;5028762;28;20072;-65
2023/05/31 06:30:12;;;;;;;11.65;4.15;;;;;;;;;;5029060;28;20120;-65
2023/05/31 06:32:38;;;;;;;8.18;3.50;;;;;;;;;;5029098;28;20503;-65
2023/05/31 06:35:04;;;;;;;8.77;3.72;;;;;;;;;;5028658;28;20071;-65
2023/05/31 06:37:31;;;;;;;8.45;3.67;;;;;;;;;;5029494;28;20037;-65
2023/05/31 06:39:57;;;;;;;9.63;3.20;;;;;;;;;;5028334;28;20029;-65
2023/05/31 06:42:23;;;;;;;7.97;3.30;;;;;;;;;;5029806;28;20040;-65
2023/05/31 06:44:50;;;;;;;7.90;3.15;;;;;;;;;;5027445;28;20665;-65
2023/05/31 06:47:16;;;;;;;7.85;3.17;;;;;;;;;;5028903;28;20083;-65
2023/05/31 06:49:42;;;;;;;8.50;2.90;;;;;;;;;;5028540;28;20027;-65
2023/05/31 06:52:09;;;;;;;9.35;2.97;;;;;;;;;;5027565;28;20787;-65
2023/05/31 06:54:36;;;;;;;8.52;2.70;;;;;;;;;;5024492;28;20040;-65
2023/05/31 06:57:03;;;;;;;8.30;2.90;;;;;;;;;;5028759;28;20753;-64
2023/05/31 06:59:29;;;;;;;8.38;2.70;;;;;;;;;;5028789;28;20095;-64
2023/05/31 07:01:55;;;;;;;7.60;2.67;;;;;;;;;;5028855;28;20093;-65
2023/05/31 07:04:22;;;;;;;6.47;2.47;;;;;;;;;;5028621;28;20072;-65
2023/05/31 07:06:48;;;;;;;5.00;2.00;;;;;;;;;;5029932;28;20052;-64
2023/05/31 07:09:14;;;;;;;7.18;2.40;;;;;;;;;;5029129;28;20037;-65
2023/05/31 07:11:40;;;;;;;5.15;2.20;;;;;;;;;;5027920;28;20082;-64
2023/05/31 07:14:06;;;;;;;6.38;2.10;;;;;;;;;;5029555;28;20037;-65
2023/05/31 07:16:32;;;;;;;6.57;2.35;;;;;;;;;;5027828;28;20033;-65
2023/05/31 07:18:58;;;;;;;6.18;2.40;;;;;;;;;;5028663;28;20124;-64
2023/05/31 07:21:24;;;;;;;9.85;2.72;;;;;;;;;;5028719;28;20087;-65
2023/05/31 07:23:51;;;;;;;6.07;2.70;;;;;;;;;;5029192;28;21260;-64
2023/05/31 07:26:17;;;;;;;7.72;2.70;;;;;;;;;;5028835;28;20060;-64
2023/05/31 07:28:44;;;;;;;6.38;2.30;;;;;;;;;;5028535;28;20060;-65
2023/05/31 07:31:10;;;;;;;8.15;2.83;;;;;;;;;;5026387;28;20083;-65
2023/05/31 07:33:37;;;;;;;7.03;2.20;;;;;;;;;;5026798;28;20037;-65
2023/05/31 07:36:03;;;;;;;6.13;2.15;;;;;;;;;;5028490;28;20103;-65
2023/05/31 07:38:32;;;;;;;7.35;2.65;;;;;;;;;;5026406;28;20028;-65
2023/05/31 07:41:27;;;;;;;6.10;2.70;;;;;;;;;;5047593;28;20029;-65
2023/05/31 07:43:55;;;;;;;6.75;2.60;;;;;;;;;;5035766;28;20048;-65
2023/05/31 07:46:21;;;;;;;8.88;2.95;;;;;;;;;;5008026;28;20088;-65
2023/05/31 07:48:48;;;;;;;8.10;2.90;;;;;;;;;;5006474;28;20585;-65
2023/05/31 07:51:38;;;;;;;11.70;3.13;;;;;;;;;;4994058;28;20041;-65
2023/05/31 07:54:25;;;;;;;6.47;2.80;;;;;;;;;;5028299;28;20128;-65
2023/05/31 07:57:17;;;;;;;10.68;2.88;;;;;;;;;;5023791;28;20021;-65
2023/05/31 07:59:43;;;;;;;7.25;3.13;;;;;;;;;;5006958;28;20045;-65
2023/05/31 08:02:09;;;;;;;10.57;3.40;;;;;;;;;;5025510;28;20136;-65
2023/05/31 08:04:36;;;;;;;8.25;3.03;;;;;;;;;;5024993;28;20159;-65
2023/05/31 08:07:02;;;;;;;9.25;3.03;;;;;;;;;;5025841;28;20032;-64
2023/05/31 08:09:29;;;;;;;9.63;3.00;;;;;;;;;;5028098;28;21326;-65
2023/05/31 08:11:56;;;;;;;10.65;3.55;;;;;;;;;;5009167;28;20037;-64
2023/05/31 08:14:22;;;;;;;7.78;2.80;;;;;;;;;;5026133;28;20087;-64
2023/05/31 08:16:50;;;;;;;8.18;2.70;;;;;;;;;;5010430;28;20511;-63
2023/05/31 08:19:16;;;;;;;7.63;2.45;;;;;;;;;;5026710;28;20697;-64
2023/05/31 08:21:45;;;;;;;8.43;2.63;;;;;;;;;;5028084;28;20045;-64
2023/05/31 08:24:11;;;;;;;5.68;2.08;;;;;;;;;;5028174;28;20044;-65
2023/05/31 08:26:37;;;;;;;6.75;2.28;;;;;;;;;;5028347;28;20037;-65
2023/05/31 08:29:03;;;;;;;5.45;2.13;;;;;;;;;;5026705;28;20033;-65
2023/05/31 08:31:29;;;;;;;7.32;2.20;;;;;;;;;;5026908;28;20021;-64
2023/05/31 08:33:56;;;;;;;7.30;2.33;;;;;;;;;;5027161;28;21453;-65
2023/05/31 08:36:23;;;;;;;7.22;2.65;;;;;;;;;;5027596;28;20096;-64
2023/05/31 08:38:49;;;;;;;6.53;2.17;;;;;;;;;;5027839;28;20417;-64
2023/05/31 08:41:15;;;;;;;5.97;2.45;;;;;;;;;;5027846;28;20045;-65
2023/05/31 08:43:41;;;;;;;7.35;2.95;;;;;;;;;;5025168;28;21041;-65
2023/05/31 08:46:08;;;;;;;9.25;2.90;;;;;;;;;;5027162;28;20412;-65
2023/05/31 08:48:43;;;;;;;7.38;2.88;;;;;;;;;;5027332;28;20773;-57
2023/05/31 08:51:09;;;;;;;7.38;2.67;;;;;;;;;;5027963;28;20037;-58
2023/05/31 08:53:35;;;;;;;6.18;2.22;;;;;;;;;;5025323;28;20029;-57
2023/05/31 08:56:02;;;;;;;10.45;3.40;;;;;;;;;;5027100;28;20029;-58
2023/05/31 08:58:28;;;;;;;9.98;3.03;;;;;;;;;;5025708;28;20044;-58
2023/05/31 09:00:55;;;;;;;9.68;2.70;;;;;;;;;;5026806;28;20949;-58
2023/05/31 09:03:22;;;;;;;9.43;2.95;;;;;;;;;;5026170;28;21706;-58
2023/05/31 09:05:48;;;;;;;12.00;3.55;;;;;;;;;;5027204;28;20040;-58
2023/05/31 09:08:14;;;;;;;8.70;2.92;;;;;;;;;;5027263;28;20033;-58
2023/05/31 09:10:40;;;;;;;12.20;3.67;;;;;;;;;;5027102;28;20037;-58
2023/05/31 09:13:07;;;;;;;11.93;3.13;;;;;;;;;;5027472;28;20083;-58
2023/05/31 09:15:35;;;;;;;11.85;3.60;;;;;;;;;;5027438;28;20039;-58
2023/05/31 09:18:19;;;;;;;9.70;3.25;;;;;;;;;;5027119;28;20035;-58
2023/05/31 09:20:46;;;;;;;10.20;3.30;;;;;;;;;;5026962;28;20071;-58
2023/05/31 09:23:13;;;;;;;15.02;4.00;;;;;;;;;;5027422;28;20057;-58
2023/05/31 09:25:43;;;;;;;13.65;4.22;;;;;;;;;;5027237;28;20543;-58
2023/05/31 09:28:09;;;;;;;11.85;3.55;;;;;;;;;;5025029;28;20041;-58
2023/05/31 09:30:36;;;;;;;13.63;4.32;;;;;;;;;;5027957;28;20072;-58
2023/05/31 09:33:02;;;;;;;14.05;4.50;;;;;;;;;;5027430;28;20029;-58
2023/05/31 09:35:28;;;;;;;14.38;5.30;;;;;;;;;;5027834;28;20721;-58
2023/05/31 09:37:54;;;;;;;17.33;4.50;;;;;;;;;;5026405;28;20041;-58
2023/05/31 09:40:27;;;;;;;12.55;3.90;;;;;;;;;;5023394;28;20033;-58
2023/05/31 09:42:54;;;;;;;11.23;3.80;;;;;;;;;;5025260;28;20579;-58
2023/05/31 09:45:20;;;;;;;10.98;4.22;;;;;;;;;;5026581;28;20098;-59
2023/05/31 09:47:47;;;;;;;15.52;4.20;;;;;;;;;;5024491;28;20029;-59
2023/05/31 09:50:17;;;;;;;12.02;3.53;;;;;;;;;;5023483;28;21852;-58
2023/05/31 09:52:44;;;;;;;8.70;3.33;;;;;;;;;;5022435;28;20029;-58
2023/05/31 09:55:11;;;;;;;10.30;3.97;;;;;;;;;;5027145;28;20108;-58
2023/05/31 09:57:41;;;;;;;10.95;3.70;;;;;;;;;;5026985;28;20392;-58
2023/05/31 10:00:17;;;;;;;10.00;4.15;;;;;;;;;;5027281;28;20160;-58
2023/05/31 10:02:51;;;;;;;14.25;4.80;;;;;;;;;;5026884;28;20127;-58
2023/05/31 10:05:17;;;;;;;9.55;4.15;;;;;;;;;;5026966;28;20029;-58
2023/05/31 10:07:44;;;;;;;13.48;4.22;;;;;;;;;;5026858;28;20090;-58
2023/05/31 10:10:11;;;;;;;12.45;4.90;;;;;;;;;;5027619;28;20095;-58
2023/05/31 10:12:43;;;;;;;10.38;4.15;;;;;;;;;;5025900;28;20051;-58
2023/05/31 10:15:10;;;;;;;8.25;3.58;;;;;;;;;;5026882;28;20026;-58
2023/05/31 10:17:39;;;;;;;10.05;3.88;;;;;;;;;;5027606;28;20173;-58
2023/05/31 10:20:07;;;;;;;10.68;4.60;;;;;;;;;;5026728;28;20053;-59
2023/05/31 10:22:35;;;;;;;11.20;4.28;;;;;;;;;;5026807;28;20057;-58
2023/05/31 10:25:04;;;;;;;10.48;4.88;;;;;;;;;;5025963;28;20029;-58
2023/05/31 10:27:34;;;;;;;11.32;4.82;;;;;;;;;;5026251;28;20025;-58
2023/05/31 10:30:05;;;;;;;7.00;3.95;;;;;;;;;;5025273;28;20025;-58
2023/05/31 10:32:35;;;;;;;11.60;5.88;;;;;;;;;;5026483;28;20029;-58
2023/05/31 10:35:02;;;;;;;11.27;5.18;;;;;;;;;;5026978;28;20025;-58
2023/05/31 10:37:28;;;;;;;9.88;5.15;;;;;;;;;;5027132;28;20173;-58
2023/05/31 10:39:54;;;;;;;12.27;5.07;;;;;;;;;;5026441;28;20056;-58
2023/05/31 10:42:28;;;;;;;10.63;5.40;;;;;;;;;;5026754;28;20051;-58
2023/05/31 10:44:59;;;;;;;11.32;4.43;;;;;;;;;;5025481;28;20477;-58
2023/05/31 10:47:29;;;;;;;11.93;5.10;;;;;;;;;;5025945;28;20058;-58
2023/05/31 10:49:56;;;;;;;10.57;4.60;;;;;;;;;;5025465;28;20056;-58
2023/05/31 10:52:22;;;;;;;10.82;4.60;;;;;;;;;;5025440;28;20997;-58
2023/05/31 10:54:49;;;;;;;9.02;4.03;;;;;;;;;;5029151;28;20044;-58
2023/05/31 10:57:16;;;;;;;11.02;4.20;;;;;;;;;;5028104;28;20056;-58
2023/05/31 10:59:43;;;;;;;10.60;3.97;;;;;;;;;;5029828;28;20036;-58
2023/05/31 11:02:09;;;;;;;8.95;3.55;;;;;;;;;;5027401;28;20063;-58
2023/05/31 11:04:35;;;;;;;8.80;3.75;;;;;;;;;;5030196;28;20033;-58
2023/05/31 11:07:14;;;;;;;8.65;3.55;;;;;;;;;;5028796;28;20037;-58
2023/05/31 11:09:45;;;;;;;8.90;3.33;;;;;;;;;;5029579;28;20037;-58
2023/05/31 11:12:12;;;;;;;13.73;4.22;;;;;;;;;;5029718;28;20030;-58
2023/05/31 11:14:38;;;;;;;9.55;3.72;;;;;;;;;;5029987;28;20148;-58
2023/05/31 11:17:06;;;;;;;10.27;3.60;;;;;;;;;;5029644;28;20037;-58
2023/05/31 11:19:32;;;;;;;8.73;4.07;;;;;;;;;;5029567;28;21681;-58
2023/05/31 11:21:59;;;;;;;11.32;4.28;;;;;;;;;;5029995;28;20734;-58
2023/05/31 11:24:28;;;;;;;11.77;3.90;;;;;;;;;;5029430;28;20415;-58
2023/05/31 11:26:55;;;;;;;11.82;3.28;;;;;;;;;;5029441;28;21752;-58
2023/05/31 11:29:21;;;;;;;8.27;3.58;;;;;;;;;;5030132;28;20031;-58
2023/05/31 11:31:58;;;;;;;9.90;3.45;;;;;;;;;;5029511;28;20064;-58
2023/05/31 11:34:26;;;;;;;9.38;3.60;;;;;;;;;;5029837;28;20021;-58
2023/05/31 11:36:52;;;;;;;8.55;2.83;;;;;;;;;;5030130;28;20107;-58
2023/05/31 11:39:19;;;;;;;7.13;3.40;;;;;;;;;;5029883;28;20025;-58
2023/05/31 11:41:45;;;;;;;12.68;3.75;;;;;;;;;;5029888;28;20032;-58
2023/05/31 11:44:12;;;;;;;9.27;3.50;;;;;;;;;;5028957;28;20033;-58
2023/05/31 11:46:43;;;;;;;6.45;3.08;;;;;;;;;;5027654;28;20152;-58
2023/05/31 11:49:10;;;;;;;8.25;3.20;;;;;;;;;;5027170;28;20475;-58
2023/05/31 11:51:38;;;;;;;9.15;3.67;;;;;;;;;;5029087;28;20044;-58
2023/05/31 11:54:04;;;;;;;8.02;3.20;;;;;;;;;;5027514;28;20048;-58
2023/05/31 11:56:32;;;;;;;11.82;3.95;;;;;;;;;;5027856;28;21821;-58
2023/05/31 11:58:58;;;;;;;10.90;3.88;;;;;;;;;;5029267;28;20323;-58
2023/05/31 12:01:25;;;;;;;9.23;3.60;;;;;;;;;;5029878;28;20040;-57
2023/05/31 12:04:00;;;;;;;9.55;3.92;;;;;;;;;;5028206;28;20051;-58
2023/05/31 12:06:26;;;;;;;12.40;4.30;;;;;;;;;;5028913;28;20441;-58
2023/05/31 12:08:55;;;;;;;11.02;4.88;;;;;;;;;;5029136;28;20033;-57
2023/05/31 12:11:21;;;;;;;11.52;4.90;;;;;;;;;;5028613;28;20243;-58
2023/05/31 12:13:48;;;;;;;9.43;4.40;;;;;;;;;;5028624;28;20024;-58
2023/05/31 12:16:14;;;;;;;10.18;4.03;;;;;;;;;;5028032;28;20029;-58
2023/05/31 12:18:40;;;;;;;8.68;3.78;;;;;;;;;;5029000;28;21348;-58
2023/05/31 12:21:11;;;;;;;12.23;4.03;;;;;;;;;;5028862;28;20123;-58
2023/05/31 12:23:51;;;;;;;10.80;4.20;;;;;;;;;;5029005;28;20049;-58
2023/05/31 12:26:17;;;;;;;9.55;3.50;;;;;;;;;;5028861;28;20227;-58
2023/05/31 12:28:43;;;;;;;10.80;3.78;;;;;;;;;;5028847;28;20033;-58
2023/05/31 12:31:09;;;;;;;8.57;4.00;;;;;;;;;;5028760;28;20641;-58
2023/05/31 12:33:36;;;;;;;13.05;4.60;;;;;;;;;;5028153;28;20774;-58
2023/05/31 12:36:03;;;;;;;12.63;3.63;;;;;;;;;;5027644;28;20794;-58
2023/05/31 12:38:29;;;;;;;11.98;4.40;;;;;;;;;;5026392;28;20068;-58
2023/05/31 12:40:56;;;;;;;12.68;4.55;;;;;;;;;;5027808;28;20078;-58
2023/05/31 12:43:22;;;;;;;10.23;3.80;;;;;;;;;;5027353;28;20052;-58
2023/05/31 12:45:48;;;;;;;9.65;4.93;;;;;;;;;;5027415;28;20040;-58
2023/05/31 12:48:14;;;;;;;10.07;5.05;;;;;;;;;;5026849;28;20037;-58
2023/05/31 12:50:46;;;;;;;15.23;6.05;;;;;;;;;;5028439;28;20480;-59
2023/05/31 12:53:13;;;;;;;10.70;6.25;;;;;;;;;;5025845;28;20032;-58
2023/05/31 12:55:39;;;;;;;12.40;5.30;;;;;;;;;;5026058;28;20107;-59
2023/05/31 12:58:05;;;;;;;10.77;4.93;;;;;;;;;;5027299;28;20450;-58
2023/05/31 13:00:32;;;;;;;10.82;4.78;;;;;;;;;;5026800;28;20275;-58
2023/05/31 13:02:58;;;;;;;9.10;4.20;;;;;;;;;;5026934;28;20040;-58
2023/05/31 13:05:25;;;;;;;12.57;4.68;;;;;;;;;;5024745;28;20515;-58
2023/05/31 13:07:52;;;;;;;10.90;4.28;;;;;;;;;;5026947;28;20047;-58
2023/05/31 13:10:18;;;;;;;11.57;4.38;;;;;;;;;;5026622;28;20029;-58
2023/05/31 13:12:45;;;;;;;9.07;4.35;;;;;;;;;;5026410;28;20029;-58
2023/05/31 13:15:11;;;;;;;14.18;5.47;;;;;;;;;;5027650;28;21626;-58
2023/05/31 13:17:37;;;;;;;8.25;3.92;;;;;;;;;;5027338;28;20037;-59
2023/05/31 13:20:04;;;;;;;9.23;3.60;;;;;;;;;;5027663;28;20040;-58
2023/05/31 13:22:30;;;;;;;13.50;4.72;;;;;;;;;;5028044;28;20049;-58
2023/05/31 13:24:57;;;;;;;8.40;4.25;;;;;;;;;;5027267;28;20087;-58
2023/05/31 13:27:23;;;;;;;14.77;6.13;;;;;;;;;;5027269;28;20033;-58
2023/05/31 13:29:49;;;;;;;12.50;5.43;;;;;;;;;;5027325;28;20029;-58
2023/05/31 13:32:15;;;;;;;13.60;5.28;;;;;;;;;;5028270;28;20044;-58
2023/05/31 13:34:41;;;;;;;17.27;7.03;;;;;;;;;;5027508;28;20040;-58
2023/05/31 13:37:07;;;;;;;15.60;5.88;;;;;;;;;;5027853;28;20928;-58
2023/05/31 13:39:34;;;;;;;8.55;3.83;;;;;;;;;;5027501;28;20034;-58
2023/05/31 13:42:01;;;;;;;7.88;3.58;;;;;;;;;;5027784;28;21595;-58
2023/05/31 13:44:27;;;;;;;8.95;3.75;;;;;;;;;;5026826;28;20475;-58
2023/05/31 13:46:53;;;;;;;8.93;3.72;;;;;;;;;;5027540;28;20036;-58
2023/05/31 13:49:20;;;;;;;11.40;4.18;;;;;;;;;;5027467;28;20162;-58
2023/05/31 13:51:46;;;;;;;9.73;3.90;;;;;;;;;;5026593;28;20102;-58
2023/05/31 13:54:13;;;;;;;7.88;3.38;;;;;;;;;;5025527;28;20033;-58
2023/05/31 13:56:39;;;;;;;9.75;4.13;;;;;;;;;;5025228;28;20036;-58
2023/05/31 13:59:05;;;;;;;10.57;3.22;;;;;;;;;;5026758;28;20090;-58
2023/05/31 14:01:31;;;;;;;9.07;3.05;;;;;;;;;;5025144;28;20044;-58
2023/05/31 14:03:57;;;;;;;7.93;3.33;;;;;;;;;;5026528;28;20496;-58
2023/05/31 14:06:23;;;;;;;11.05;3.53;;;;;;;;;;5026273;28;20694;-58
2023/05/31 14:08:50;;;;;;;7.95;3.10;;;;;;;;;;5025797;28;20161;-58
2023/05/31 14:11:17;;;;;;;9.38;3.20;;;;;;;;;;5027475;28;20124;-58
2023/05/31 14:13:43;;;;;;;8.73;3.15;;;;;;;;;;5027202;28;21027;-58
2023/05/31 14:16:09;;;;;;;6.97;3.13;;;;;;;;;;5027510;28;21087;-59
2023/05/31 14:18:35;;;;;;;7.07;2.72;;;;;;;;;;5026411;28;20981;-58
2023/05/31 14:21:01;;;;;;;8.65;2.70;;;;;;;;;;5026460;28;20048;-59
2023/05/31 14:23:27;;;;;;;8.10;2.78;;;;;;;;;;5026637;28;20049;-59
2023/05/31 14:25:54;;;;;;;8.02;2.72;;;;;;;;;;5026488;28;20056;-58
2023/05/31 14:28:20;;;;;;;7.28;2.90;;;;;;;;;;5029495;28;20056;-58
2023/05/31 14:30:46;;;;;;;6.68;2.80;;;;;;;;;;5031138;28;20037;-58
2023/05/31 14:33:12;;;;;;;7.35;2.63;;;;;;;;;;5030356;28;20110;-58
2023/05/31 14:35:38;;;;;;;7.53;2.50;;;;;;;;;;5030516;28;20076;-58
2023/05/31 14:38:04;;;;;;;8.43;2.80;;;;;;;;;;5030790;28;20040;-59